Time;durP1;ratioP1;P1;durP2;ratioP2;P2;SDS_P1;SDS_P2;PMS_P1;PMS_P2;Temp;Humidity;BMP_temperature;BMP_pressure;BME280_temperature;BME280_humidity;BME280_pressure;Samples;Min_cycle;Max_cycle;Signal;HPM_P1;HPM_P2
2022/01/03 00:01:11;;;;;;;9.38;4.25;;;;;;;15.20;73.40;101855.25;5063966;28;20048;-71
2022/01/03 00:03:39;;;;;;;11.27;3.78;;;;;;;15.20;73.42;101847.28;5048433;28;20045;-71
2022/01/03 00:06:07;;;;;;;9.75;3.65;;;;;;;15.23;73.34;101836.69;5048315;28;20045;-72
2022/01/03 00:08:34;;;;;;;6.18;3.30;;;;;;;15.24;73.29;101846.44;5048938;28;20037;-71
2022/01/03 00:11:02;;;;;;;8.10;2.88;;;;;;;15.26;73.17;101844.72;5046618;28;20087;-72
2022/01/03 00:13:30;;;;;;;8.70;2.80;;;;;;;15.31;72.49;101848.31;5039206;28;20135;-71
2022/01/03 00:15:57;;;;;;;7.03;2.78;;;;;;;15.36;72.03;101836.00;5046511;28;20045;-72
2022/01/03 00:18:26;;;;;;;6.25;3.15;;;;;;;15.38;72.14;101839.53;5046841;28;20404;-71
2022/01/03 00:20:59;;;;;;;6.40;2.65;;;;;;;15.36;71.92;101833.34;5047017;28;20041;-71
2022/01/03 00:23:28;;;;;;;9.68;3.35;;;;;;;15.33;72.02;101833.28;5030207;28;20061;-71
2022/01/03 00:26:00;;;;;;;8.52;3.15;;;;;;;15.27;72.12;101834.09;5046367;28;20071;-72
2022/01/03 00:28:34;;;;;;;7.65;2.90;;;;;;;15.18;72.16;101833.94;5048369;28;20121;-72
2022/01/03 00:31:04;;;;;;;8.38;2.90;;;;;;;15.12;71.41;101825.88;5046135;28;20048;-72
2022/01/03 00:33:34;;;;;;;10.40;3.08;;;;;;;15.08;71.13;101832.06;5048303;28;20041;-71
2022/01/03 00:36:04;;;;;;;8.93;2.67;;;;;;;15.02;70.88;101824.00;5046945;28;20041;-71
2022/01/03 00:38:34;;;;;;;8.85;3.67;;;;;;;14.97;70.60;101831.88;5047182;28;20584;-72
2022/01/03 00:41:02;;;;;;;4.95;2.75;;;;;;;14.91;70.60;101821.16;5046179;28;20103;-72
2022/01/03 00:43:32;;;;;;;8.23;3.70;;;;;;;14.88;70.40;101814.91;5062790;28;20049;-71
2022/01/03 00:45:59;;;;;;;10.25;3.60;;;;;;;14.88;70.06;101813.16;5047064;28;20033;-72
2022/01/03 00:48:28;;;;;;;12.40;5.57;;;;;;;14.96;69.58;101810.59;5030482;28;20040;-71
2022/01/03 00:50:57;;;;;;;8.45;3.33;;;;;;;15.03;69.43;101808.03;5052324;28;20052;-72
2022/01/03 00:53:24;;;;;;;11.45;3.88;;;;;;;15.03;69.40;101818.66;5046772;28;20042;-72
2022/01/03 00:56:03;;;;;;;16.08;4.07;;;;;;;14.97;69.78;101821.25;5051738;28;20041;-72
2022/01/03 00:58:38;;;;;;;12.77;3.75;;;;;;;14.89;69.99;101828.22;5033978;28;20418;-71
2022/01/03 01:01:07;;;;;;;10.73;4.30;;;;;;;14.82;70.07;101826.34;5049885;28;20049;-72
2022/01/03 01:03:37;;;;;;;7.20;2.92;;;;;;;14.78;70.20;101819.19;5050398;28;20029;-72
2022/01/03 01:06:10;;;;;;;12.10;3.60;;;;;;;14.80;70.04;101801.50;5049613;28;20044;-71
2022/01/03 01:08:38;;;;;;;9.65;3.65;;;;;;;14.86;69.79;101803.34;5050192;28;20048;-71
2022/01/03 01:11:08;;;;;;;12.15;3.90;;;;;;;14.88;69.69;101804.28;5042119;28;20091;-74
2022/01/03 01:13:39;;;;;;;9.50;3.67;;;;;;;14.86;69.67;101804.25;5069516;28;20434;-71
2022/01/03 01:16:09;;;;;;;5.72;2.80;;;;;;;14.86;69.58;101809.56;5070216;28;20060;-71
2022/01/03 01:18:45;;;;;;;7.90;3.55;;;;;;;14.85;69.46;101799.78;5061818;28;20045;-72
2022/01/03 01:21:16;;;;;;;9.15;3.63;;;;;;;14.83;69.22;101792.69;5069224;28;20045;-71
2022/01/03 01:23:44;;;;;;;8.40;3.28;;;;;;;14.81;69.23;101797.06;5069915;28;20052;-71
2022/01/03 01:29:00;;;;;;;6.85;3.25;;;;;;;14.77;69.07;101792.59;5067182;28;20045;-71
2022/01/03 01:31:28;;;;;;;7.13;3.22;;;;;;;14.72;69.04;101782.78;5070738;28;20106;-72
2022/01/03 01:33:58;;;;;;;6.85;3.20;;;;;;;14.80;68.94;101774.00;5069756;28;20044;-71
2022/01/03 01:36:31;;;;;;;8.27;3.13;;;;;;;14.91;68.62;101780.38;5052657;28;20095;-72
2022/01/03 01:39:03;;;;;;;7.65;3.33;;;;;;;15.01;68.26;101775.22;5051680;28;20065;-72
2022/01/03 01:41:37;;;;;;;9.57;3.40;;;;;;;15.03;68.36;101769.94;5050169;28;20056;-72
2022/01/03 01:44:09;;;;;;;7.18;2.80;;;;;;;15.01;68.63;101769.00;5050164;28;20047;-72
2022/01/03 01:46:46;;;;;;;6.28;3.30;;;;;;;14.96;69.04;101778.69;5050610;28;20135;-71
2022/01/03 01:49:18;;;;;;;5.75;3.13;;;;;;;15.00;69.10;101783.16;5029796;28;20047;-71
2022/01/03 01:51:58;;;;;;;10.82;2.70;;;;;;;15.06;69.04;101773.50;5062693;28;20083;-71
2022/01/03 01:54:31;;;;;;;6.53;2.67;;;;;;;15.10;69.09;101766.44;5083584;28;20041;-72
2022/01/03 01:57:20;;;;;;;6.20;2.55;;;;;;;15.11;69.05;101763.81;5069775;28;20037;-72
2022/01/03 02:00:05;;;;;;;7.10;2.78;;;;;;;15.11;69.04;101766.47;5069302;28;20094;-72
2022/01/03 02:02:57;;;;;;;6.03;2.72;;;;;;;15.08;69.14;101769.13;5069534;28;20138;-72
2022/01/03 02:05:31;;;;;;;4.63;2.65;;;;;;;15.02;69.27;101750.44;5068426;28;20040;-72
2022/01/03 02:08:14;;;;;;;8.55;3.10;;;;;;;14.95;69.57;101748.56;5068506;28;20132;-72
2022/01/03 02:10:44;;;;;;;6.53;2.70;;;;;;;14.88;69.77;101756.41;5068834;28;20051;-72
2022/01/03 02:13:16;;;;;;;6.28;2.75;;;;;;;14.82;69.78;101756.34;5069082;28;20040;-71
2022/01/03 02:15:49;;;;;;;4.93;2.33;;;;;;;14.74;70.12;101765.09;5069299;28;20051;-72
2022/01/03 02:18:17;;;;;;;6.15;2.90;;;;;;;14.72;69.89;101763.25;5068324;28;20117;-71
2022/01/03 02:20:47;;;;;;;7.90;3.03;;;;;;;14.75;69.80;101764.22;5069233;28;20051;-71
2022/01/03 02:23:16;;;;;;;10.05;2.97;;;;;;;14.81;69.61;101755.44;5068735;28;20482;-71
2022/01/03 02:25:46;;;;;;;4.10;2.55;;;;;;;14.86;69.57;101758.16;5054243;28;20106;-72
2022/01/03 02:28:16;;;;;;;6.63;2.97;;;;;;;14.83;69.83;101751.03;5066465;28;20040;-72
2022/01/03 02:30:44;;;;;;;5.70;2.50;;;;;;;14.75;69.88;101747.38;5067249;28;20072;-72
2022/01/03 02:33:11;;;;;;;5.45;2.83;;;;;;;14.67;70.03;101747.25;5067085;28;20427;-71
2022/01/03 02:35:42;;;;;;;7.05;2.67;;;;;;;14.62;69.97;101742.75;5066839;28;20051;-72
2022/01/03 02:38:15;;;;;;;7.03;3.03;;;;;;;14.61;69.81;101747.19;5066999;28;20051;-71
2022/01/03 02:40:43;;;;;;;4.80;2.58;;;;;;;14.67;69.54;101743.72;5066774;28;20094;-71
2022/01/03 02:43:11;;;;;;;9.80;3.97;;;;;;;14.80;69.38;101743.00;5069828;28;20512;-72
2022/01/03 02:45:40;;;;;;;7.82;3.28;;;;;;;14.91;69.10;101743.16;5068356;28;20044;-71
2022/01/03 02:48:09;;;;;;;10.13;3.85;;;;;;;15.00;69.00;101735.31;5064889;28;20043;-72
2022/01/03 02:50:39;;;;;;;8.95;3.67;;;;;;;15.02;69.06;101731.81;5068808;28;20445;-71
2022/01/03 02:53:08;;;;;;;12.30;4.22;;;;;;;15.08;69.19;101741.63;5068334;28;20745;-71
2022/01/03 02:55:38;;;;;;;7.82;3.97;;;;;;;15.14;69.63;101744.34;5051377;28;20059;-72
2022/01/03 02:58:09;;;;;;;8.38;3.28;;;;;;;15.17;70.07;101755.03;5070133;28;20119;-71
2022/01/03 03:00:45;;;;;;;6.18;3.17;;;;;;;15.25;70.37;101741.81;5052786;28;20404;-72
2022/01/03 03:03:17;;;;;;;8.85;3.40;;;;;;;15.26;70.53;101755.16;5067796;28;20045;-71
2022/01/03 03:05:46;;;;;;;10.55;3.90;;;;;;;15.31;70.76;101755.19;5067066;28;20044;-71
2022/01/03 03:08:15;;;;;;;9.80;3.50;;;;;;;15.33;70.94;101758.78;5051685;28;20033;-71
2022/01/03 03:10:45;;;;;;;7.05;3.63;;;;;;;15.32;71.12;101755.22;5067506;28;20036;-72
2022/01/03 03:13:13;;;;;;;7.82;3.72;;;;;;;15.23;71.32;101762.22;5050974;28;20048;-72
2022/01/03 03:15:42;;;;;;;6.60;3.47;;;;;;;15.11;71.47;101761.16;5068487;28;20127;-72
2022/01/03 03:18:10;;;;;;;6.78;2.67;;;;;;;15.02;71.65;101761.06;5071611;28;20134;-72
2022/01/03 03:20:39;;;;;;;9.45;3.42;;;;;;;14.97;71.58;101761.84;5063757;28;20044;-72
2022/01/03 03:23:07;;;;;;;6.35;3.10;;;;;;;14.89;71.68;101764.41;5067139;28;20123;-72
2022/01/03 03:25:37;;;;;;;9.07;3.42;;;;;;;14.86;71.68;101768.78;5067730;28;20040;-71
2022/01/03 03:28:11;;;;;;;6.38;2.97;;;;;;;14.83;71.75;101764.34;5067638;28;20377;-72
2022/01/03 03:30:42;;;;;;;7.47;3.40;;;;;;;14.83;71.74;101768.75;5066974;28;20043;-71
2022/01/03 03:33:13;;;;;;;9.50;5.03;;;;;;;14.82;71.68;101761.66;5050866;28;20044;-71
2022/01/03 03:35:45;;;;;;;5.88;3.88;;;;;;;14.83;71.70;101772.31;5066975;28;20040;-71
2022/01/03 03:38:14;;;;;;;6.93;3.60;;;;;;;14.88;71.54;101770.59;5060992;28;20099;-73
2022/01/03 03:40:45;;;;;;;9.07;4.55;;;;;;;15.00;71.25;101767.22;5057604;28;20097;-72
2022/01/03 03:43:15;;;;;;;8.35;3.92;;;;;;;15.07;71.20;101759.34;5067736;28;20043;-72
2022/01/03 03:45:45;;;;;;;8.52;3.13;;;;;;;15.04;71.17;101756.63;5067184;28;20492;-72
2022/01/03 03:48:14;;;;;;;6.35;2.97;;;;;;;15.03;71.22;101769.94;5047263;28;20049;-72
2022/01/03 03:50:42;;;;;;;7.55;3.72;;;;;;;14.97;71.47;101773.38;5048474;28;20036;-72
2022/01/03 03:53:10;;;;;;;6.90;3.58;;;;;;;14.98;71.58;101774.28;5067784;28;20080;-72
2022/01/03 03:55:38;;;;;;;8.45;3.58;;;;;;;15.03;71.42;101773.47;5066023;28;20052;-72
2022/01/03 03:58:06;;;;;;;7.53;2.92;;;;;;;15.06;71.39;101776.16;5068140;28;20424;-72
2022/01/03 04:00:36;;;;;;;12.57;3.22;;;;;;;15.12;71.33;101778.91;5067507;28;20465;-72
2022/01/03 04:03:07;;;;;;;8.80;3.72;;;;;;;15.17;71.18;101776.31;5064260;28;20048;-72
2022/01/03 04:05:35;;;;;;;8.77;3.17;;;;;;;15.16;71.20;101771.88;5065861;28;20041;-71
2022/01/03 04:08:03;;;;;;;7.03;3.60;;;;;;;15.09;71.48;101765.59;5067197;28;20400;-71
2022/01/03 04:10:31;;;;;;;8.05;3.70;;;;;;;15.05;71.55;101774.38;5066328;28;20048;-72
2022/01/03 04:13:01;;;;;;;8.07;3.90;;;;;;;15.05;71.66;101777.03;5066627;28;20041;-72
2022/01/03 04:15:29;;;;;;;5.93;3.20;;;;;;;15.03;71.62;101784.09;5050449;28;20049;-71
2022/01/03 04:17:59;;;;;;;8.38;3.58;;;;;;;15.02;71.72;101781.44;5067183;28;20063;-72
2022/01/03 04:20:27;;;;;;;8.27;3.58;;;;;;;14.98;71.92;101780.47;5066997;28;20131;-72
2022/01/03 04:22:54;;;;;;;6.20;3.58;;;;;;;14.95;72.01;101776.91;5067104;28;20036;-72
2022/01/03 04:25:22;;;;;;;11.00;4.10;;;;;;;14.88;72.20;101775.91;5066231;28;20040;-71
2022/01/03 04:27:50;;;;;;;7.40;4.05;;;;;;;14.83;72.27;101782.06;5067543;28;20115;-72
2022/01/03 04:30:18;;;;;;;6.10;3.10;;;;;;;14.79;72.46;101783.75;5070293;28;20047;-71
2022/01/03 04:32:46;;;;;;;9.52;4.07;;;;;;;14.80;72.44;101779.34;5071617;28;20040;-72
2022/01/03 04:35:15;;;;;;;10.02;3.72;;;;;;;14.77;72.47;101783.72;5071716;28;20047;-72
2022/01/03 04:37:43;;;;;;;9.40;3.97;;;;;;;14.78;72.53;101781.97;5070639;28;20045;-71
2022/01/03 04:40:12;;;;;;;11.20;4.50;;;;;;;14.82;72.51;101788.22;5070060;28;20052;-72
2022/01/03 04:42:40;;;;;;;10.02;3.97;;;;;;;14.78;72.59;101787.28;5070664;28;20146;-71
2022/01/03 04:45:08;;;;;;;11.18;7.80;;;;;;;14.73;72.71;101778.34;5070236;28;20036;-72
2022/01/03 04:47:36;;;;;;;10.25;6.22;;;;;;;14.64;72.95;101776.44;5070237;28;20044;-71
2022/01/03 04:50:05;;;;;;;8.23;4.43;;;;;;;14.58;73.12;101784.31;5070677;28;20403;-72
2022/01/03 04:52:34;;;;;;;7.97;4.10;;;;;;;14.56;73.22;101785.19;5070586;28;20043;-71
2022/01/03 04:55:02;;;;;;;8.32;3.97;;;;;;;14.50;73.23;101785.09;5070551;28;20064;-72
2022/01/03 04:57:30;;;;;;;8.65;4.78;;;;;;;14.50;73.37;101793.94;5072113;28;20131;-71
2022/01/03 04:59:58;;;;;;;9.50;4.93;;;;;;;14.55;73.28;101789.59;5053537;28;20102;-72
2022/01/03 05:02:26;;;;;;;12.25;4.30;;;;;;;14.61;73.12;101788.78;5069821;28;20033;-72
2022/01/03 05:04:54;;;;;;;9.82;3.85;;;;;;;14.67;73.09;101788.88;5053663;28;20048;-72
2022/01/03 05:07:21;;;;;;;6.47;3.60;;;;;;;14.75;72.97;101782.81;5071514;28;20044;-72
2022/01/03 05:09:51;;;;;;;9.70;4.47;;;;;;;14.84;72.88;101789.13;5069964;28;20106;-71
2022/01/03 05:12:19;;;;;;;7.97;3.55;;;;;;;14.83;72.97;101790.03;5070639;28;20404;-72
2022/01/03 05:14:49;;;;;;;12.25;4.10;;;;;;;14.80;73.10;101790.88;5070308;28;20036;-72
2022/01/03 05:17:17;;;;;;;23.13;11.82;;;;;;;14.79;73.16;101788.19;5070426;28;20064;-72
2022/01/03 05:19:46;;;;;;;15.90;8.27;;;;;;;14.71;73.19;101780.97;5069681;28;20408;-72
2022/01/03 05:22:13;;;;;;;18.55;11.77;;;;;;;14.68;73.18;101786.25;5070760;28;20120;-72
2022/01/03 05:24:41;;;;;;;15.00;8.23;;;;;;;14.65;73.36;101780.88;5069847;28;20048;-72
2022/01/03 05:27:10;;;;;;;8.95;4.85;;;;;;;14.64;73.23;101784.41;5069849;28;20389;-71
2022/01/03 05:29:38;;;;;;;18.92;12.32;;;;;;;14.63;73.29;101790.63;5069729;28;20174;-72
2022/01/03 05:32:06;;;;;;;19.00;11.45;;;;;;;14.66;73.26;101787.09;5069185;28;20056;-72
2022/01/03 05:34:34;;;;;;;29.85;16.52;;;;;;;14.71;73.20;101785.41;5069638;28;20052;-72
2022/01/03 05:37:02;;;;;;;37.08;22.80;;;;;;;14.73;73.18;101787.22;5086283;28;20036;-71
2022/01/03 05:39:32;;;;;;;20.10;10.65;;;;;;;14.74;73.13;101782.81;5069436;28;20047;-71
2022/01/03 05:42:00;;;;;;;18.13;10.60;;;;;;;14.72;73.19;101787.19;5067863;28;20037;-71
2022/01/03 05:44:29;;;;;;;27.23;17.10;;;;;;;14.65;73.29;101796.84;5053133;28;20051;-72
2022/01/03 05:46:57;;;;;;;14.48;10.30;;;;;;;14.59;73.48;101799.41;5052925;28;20041;-72
2022/01/03 05:49:25;;;;;;;12.45;7.03;;;;;;;14.60;73.53;101795.88;5069359;28;20544;-72
2022/01/03 05:51:53;;;;;;;10.65;7.03;;;;;;;14.69;73.40;101804.00;5069408;28;20041;-72
2022/01/03 05:54:21;;;;;;;10.77;7.35;;;;;;;14.77;73.11;101796.13;5069435;28;20041;-72
2022/01/03 05:56:49;;;;;;;10.63;6.85;;;;;;;14.80;73.15;101793.53;5069355;28;20044;-71
2022/01/03 05:59:17;;;;;;;8.35;4.97;;;;;;;14.76;73.24;101807.66;5052275;28;20044;-71
2022/01/03 06:01:47;;;;;;;8.23;5.60;;;;;;;14.73;73.34;101799.63;5085296;28;20044;-71
2022/01/03 06:04:20;;;;;;;14.23;6.97;;;;;;;14.76;73.34;101799.69;5069442;28;20040;-72
2022/01/03 06:06:57;;;;;;;12.65;7.60;;;;;;;14.87;72.98;101797.16;5068726;28;20043;-73
2022/01/03 06:09:47;;;;;;;8.57;5.47;;;;;;;14.94;72.70;101805.25;5068231;28;20039;-72
2022/01/03 06:12:16;;;;;;;27.50;15.88;;;;;;;15.02;72.65;101798.28;5057151;28;20041;-71
2022/01/03 06:14:55;;;;;;;11.43;7.90;;;;;;;15.12;72.51;101797.53;5068089;28;20036;-71
2022/01/03 06:17:26;;;;;;;9.75;6.55;;;;;;;15.22;72.34;101802.97;5068776;28;20052;-72
2022/01/03 06:19:55;;;;;;;13.90;7.07;;;;;;;15.25;72.27;101800.34;5068928;28;20028;-72
2022/01/03 06:22:23;;;;;;;20.15;10.68;;;;;;;15.31;72.14;101811.06;5068716;28;20044;-72
2022/01/03 06:24:56;;;;;;;35.92;20.35;;;;;;;15.36;72.08;101812.91;5080996;28;20041;-72
2022/01/03 06:27:23;;;;;;;67.65;42.08;;;;;;;15.42;71.79;101805.03;5068923;28;20047;-72
2022/01/03 06:29:51;;;;;;;32.28;22.38;;;;;;;15.47;71.78;101807.75;5068571;28;20048;-71
2022/01/03 06:32:19;;;;;;;20.13;13.63;;;;;;;15.53;71.65;101807.84;5069339;28;20036;-72
2022/01/03 06:34:48;;;;;;;11.13;5.18;;;;;;;15.54;71.41;101809.63;5069407;28;20040;-72
2022/01/03 06:37:16;;;;;;;14.05;8.75;;;;;;;15.45;71.35;101807.72;5081224;28;20118;-72
2022/01/03 06:40:06;;;;;;;9.60;4.88;;;;;;;15.36;71.59;101806.72;5068977;28;20036;-72
2022/01/03 06:42:34;;;;;;;8.95;4.43;;;;;;;15.37;71.42;101816.47;5068343;28;20048;-72
2022/01/03 06:45:03;;;;;;;6.72;3.28;;;;;;;15.50;71.23;101816.66;5068548;28;20041;-71
2022/01/03 06:47:31;;;;;;;9.98;3.15;;;;;;;15.62;70.71;101813.25;5068335;28;20455;-72
2022/01/03 06:50:00;;;;;;;7.20;3.25;;;;;;;15.67;70.60;101814.25;5067581;28;20044;-71
2022/01/03 06:52:29;;;;;;;6.18;3.05;;;;;;;15.63;70.79;101825.69;5067877;28;20254;-72
2022/01/03 06:54:57;;;;;;;6.43;2.70;;;;;;;15.59;70.72;101817.66;5067504;28;20045;-72
2022/01/03 06:57:26;;;;;;;9.63;3.05;;;;;;;15.54;70.63;101815.88;5068079;28;20047;-72
2022/01/03 06:59:53;;;;;;;7.57;2.95;;;;;;;15.58;70.10;101827.41;5067898;28;20033;-72
2022/01/03 07:02:22;;;;;;;4.38;2.83;;;;;;;15.79;70.29;101830.34;5066869;28;20044;-72
2022/01/03 07:04:50;;;;;;;5.72;2.72;;;;;;;16.25;70.21;101830.81;5067656;28;20040;-72
2022/01/03 07:07:20;;;;;;;6.03;2.47;;;;;;;16.30;70.04;101831.75;5068845;28;20041;-72
2022/01/03 07:09:47;;;;;;;8.80;3.40;;;;;;;16.24;69.59;101834.38;5058078;28;20442;-71
2022/01/03 07:12:16;;;;;;;6.95;3.38;;;;;;;16.23;69.10;101841.47;5033131;28;20404;-71
2022/01/03 07:20:12;;;;;;;;;;;;;;;16.62;69.39;101840.06;5045676;28;20121;-71
2022/01/03 07:22:41;;;;;;;5.10;2.40;;;;;;;17.10;69.22;101839.53;5052273;28;19921;-72
2022/01/03 07:25:10;;;;;;;5.18;2.35;;;;;;;17.26;68.51;101829.84;5040762;28;20119;-71
2022/01/03 07:27:38;;;;;;;5.18;2.38;;;;;;;17.25;68.41;101834.28;5045275;28;20038;-72
2022/01/03 07:30:07;;;;;;;4.95;2.22;;;;;;;17.28;68.52;101833.41;5017388;28;20041;-71
2022/01/03 07:32:34;;;;;;;5.78;2.78;;;;;;;17.08;67.98;101847.50;5045578;28;20129;-71
2022/01/03 07:35:02;;;;;;;4.82;2.25;;;;;;;16.86;67.61;101845.59;5040060;28;20485;-71
2022/01/03 07:37:29;;;;;;;5.13;3.03;;;;;;;16.72;68.02;101844.59;5027996;28;20548;-72
2022/01/03 07:39:59;;;;;;;6.55;2.83;;;;;;;17.05;67.69;101842.19;5032124;28;20392;-72
2022/01/03 07:42:26;;;;;;;3.95;2.30;;;;;;;17.46;67.92;101839.72;5036009;28;20065;-72
2022/01/03 07:44:57;;;;;;;6.43;3.00;;;;;;;17.69;67.97;101849.66;5050749;28;20124;-72
2022/01/03 07:47:25;;;;;;;10.77;4.75;;;;;;;17.92;67.99;101845.25;5061489;28;20037;-72
2022/01/03 07:49:53;;;;;;;5.35;2.17;;;;;;;18.38;67.30;101858.75;5039119;28;20447;-72
2022/01/03 07:52:21;;;;;;;5.60;2.83;;;;;;;18.77;66.68;101852.56;5047082;28;20063;-72
2022/01/03 07:54:51;;;;;;;5.30;3.00;;;;;;;18.91;65.62;101864.09;5029316;28;20065;-72
2022/01/03 07:57:21;;;;;;;6.18;2.78;;;;;;;19.25;64.45;101852.47;5057138;28;20121;-72
2022/01/03 07:59:49;;;;;;;4.45;2.75;;;;;;;19.52;63.46;101847.94;5067565;28;20127;-72
2022/01/03 08:02:18;;;;;;;6.75;3.00;;;;;;;19.34;62.03;101847.09;5056094;28;20044;-72
2022/01/03 08:04:46;;;;;;;5.93;3.47;;;;;;;19.09;62.52;101845.38;5067448;28;20048;-71
2022/01/03 08:07:13;;;;;;;9.70;5.10;;;;;;;18.93;62.23;101854.31;5048302;28;20040;-71
2022/01/03 08:09:41;;;;;;;6.28;3.40;;;;;;;18.73;61.49;101848.97;5052525;28;20536;-71
2022/01/03 08:12:10;;;;;;;7.70;3.33;;;;;;;18.53;61.39;101840.91;5054108;28;20432;-70
2022/01/03 08:14:39;;;;;;;6.97;3.72;;;;;;;18.88;61.68;101840.94;5065943;28;20131;-71
2022/01/03 08:17:07;;;;;;;8.95;3.95;;;;;;;18.91;61.62;101843.59;5066903;28;20054;-71
2022/01/03 08:19:34;;;;;;;6.57;2.90;;;;;;;19.05;61.08;101846.25;5065638;28;20041;-71
2022/01/03 08:22:02;;;;;;;11.00;3.58;;;;;;;18.87;60.76;101851.63;5063849;28;20139;-72
2022/01/03 08:24:30;;;;;;;6.00;2.83;;;;;;;18.68;60.02;101850.75;5064646;28;20044;-71
2022/01/03 08:26:57;;;;;;;14.35;5.28;;;;;;;18.58;60.40;101849.84;5064400;28;20052;-72
2022/01/03 08:29:25;;;;;;;6.80;2.80;;;;;;;18.52;60.38;101854.28;5051339;28;20480;-71
2022/01/03 08:31:54;;;;;;;6.07;2.83;;;;;;;18.42;60.51;101860.53;5056596;28;20493;-72
2022/01/03 08:34:22;;;;;;;6.88;2.88;;;;;;;18.21;60.80;101861.38;5063696;28;20120;-72
2022/01/03 08:36:49;;;;;;;5.03;2.88;;;;;;;18.19;60.85;101845.31;5052839;28;20124;-71
2022/01/03 08:39:17;;;;;;;6.88;3.05;;;;;;;18.62;60.74;101848.97;5061712;28;20579;-71
2022/01/03 08:41:44;;;;;;;6.53;2.53;;;;;;;19.00;60.11;101851.63;5063590;28;20660;-71
2022/01/03 08:44:12;;;;;;;9.40;3.35;;;;;;;19.04;60.37;101850.72;5063078;28;20544;-71
2022/01/03 08:46:40;;;;;;;9.10;3.17;;;;;;;18.88;59.51;101848.06;5060643;28;20048;-71
2022/01/03 08:49:09;;;;;;;10.20;3.22;;;;;;;18.80;59.86;101850.75;5058496;28;20045;-71
2022/01/03 08:51:37;;;;;;;7.22;3.45;;;;;;;18.63;60.19;101837.41;5064197;28;20059;-71
2022/01/03 08:54:04;;;;;;;10.02;4.57;;;;;;;18.56;60.30;101840.06;5079391;28;20672;-71
2022/01/03 08:56:32;;;;;;;13.48;4.95;;;;;;;18.92;59.81;101840.03;5057721;28;20049;-71
2022/01/03 08:59:00;;;;;;;9.00;3.63;;;;;;;19.56;59.15;101844.38;5049353;28;20132;-71
2022/01/03 09:01:27;;;;;;;6.22;2.08;;;;;;;19.77;58.99;101838.91;5060297;28;20037;-71
2022/01/03 09:03:55;;;;;;;5.68;2.95;;;;;;;19.85;58.31;101840.66;5063123;28;20123;-73
2022/01/03 09:06:24;;;;;;;5.65;2.67;;;;;;;19.71;57.80;101839.81;5059913;28;20045;-74
2022/01/03 09:08:51;;;;;;;8.00;2.50;;;;;;;19.40;57.79;101843.50;5050981;28;20114;-74
2022/01/03 09:11:19;;;;;;;5.72;2.60;;;;;;;19.17;58.26;101840.88;5064404;28;20043;-73
2022/01/03 09:13:48;;;;;;;7.30;2.50;;;;;;;19.13;58.65;101833.75;5053616;28;20709;-73
2022/01/03 09:16:15;;;;;;;5.82;2.50;;;;;;;19.04;58.71;101831.06;5044878;28;20048;-73
2022/01/03 09:18:43;;;;;;;6.20;2.30;;;;;;;19.19;58.55;101824.81;5045378;28;20045;-73
2022/01/03 09:21:11;;;;;;;4.85;2.63;;;;;;;19.70;59.25;101827.31;5056649;28;20192;-73
2022/01/03 09:23:44;;;;;;;5.28;2.63;;;;;;;19.99;58.76;101828.97;5052776;28;20485;-73
2022/01/03 09:28:57;;;;;;;5.85;2.65;;;;;;;20.21;57.86;101823.47;5044001;28;20041;-73
2022/01/03 09:31:30;;;;;;;8.93;4.95;;;;;;;20.21;56.85;101818.09;5029167;28;20052;-74
2022/01/03 09:34:00;;;;;;;11.77;3.72;;;;;;;20.51;56.58;101811.63;5061193;28;20053;-73
2022/01/03 09:36:30;;;;;;;19.73;9.13;;;;;;;20.33;56.48;101809.09;5055467;28;20041;-73
2022/01/03 09:39:00;;;;;;;12.85;5.38;;;;;;;19.96;56.97;101800.38;5041173;28;20112;-73
2022/01/03 09:41:29;;;;;;;11.98;4.47;;;;;;;20.11;57.13;101794.03;5038301;28;20132;-73
2022/01/03 09:44:00;;;;;;;8.80;4.32;;;;;;;20.42;56.67;101792.91;5043222;28;20041;-73
2022/01/03 09:46:33;;;;;;;8.25;4.32;;;;;;;20.67;55.70;101789.13;5049298;28;20578;-74
2022/01/03 09:49:01;;;;;;;24.48;14.20;;;;;;;20.80;54.50;101775.59;5045724;28;20051;-74
2022/01/03 09:51:31;;;;;;;22.73;15.23;;;;;;;20.87;53.47;101774.63;5043829;28;20033;-74
2022/01/03 09:54:04;;;;;;;19.13;13.30;;;;;;;21.07;54.27;101767.22;5039325;28;20041;-74
2022/01/03 09:56:34;;;;;;;15.38;10.57;;;;;;;21.26;53.86;101767.94;5040741;28;20071;-74
2022/01/03 09:59:02;;;;;;;4.90;2.20;;;;;;;21.34;52.39;101763.34;5036246;28;20124;-73
2022/01/03 10:01:31;;;;;;;7.45;2.03;;;;;;;21.29;51.75;101755.34;5046382;28;20045;-73
2022/01/03 10:03:58;;;;;;;6.90;3.67;;;;;;;21.40;51.98;101752.50;5057338;28;20508;-74
2022/01/03 10:06:26;;;;;;;10.35;5.97;;;;;;;21.60;52.11;101754.94;5046918;28;20317;-74
2022/01/03 10:08:55;;;;;;;5.70;1.60;;;;;;;21.79;52.01;101753.78;5037830;28;20052;-73
2022/01/03 10:11:25;;;;;;;3.10;1.33;;;;;;;21.93;50.98;101757.13;5035763;28;20056;-74
2022/01/03 10:13:53;;;;;;;3.97;1.52;;;;;;;21.80;50.73;101752.84;5059843;28;20469;-75
2022/01/03 10:16:21;;;;;;;4.63;1.73;;;;;;;21.96;51.42;101751.75;5033021;28;20037;-74
2022/01/03 10:18:49;;;;;;;4.30;1.70;;;;;;;21.95;50.50;101747.25;5036298;28;20120;-74
2022/01/03 10:21:34;;;;;;;2.35;1.30;;;;;;;21.73;49.23;101745.78;5042352;28;20068;-74
2022/01/03 10:24:02;;;;;;;2.10;1.30;;;;;;;21.52;49.84;101736.25;5038903;28;20146;-75
2022/01/03 10:26:31;;;;;;;3.60;1.40;;;;;;;21.73;49.67;101741.28;5052663;28;20078;-75
2022/01/03 10:29:15;;;;;;;2.10;1.42;;;;;;;21.83;49.96;101734.88;5034967;28;20049;-75
2022/01/03 10:31:50;;;;;;;3.80;1.48;;;;;;;21.76;50.35;101738.56;5028034;28;20108;-74
2022/01/03 10:34:22;;;;;;;4.13;1.52;;;;;;;21.76;49.34;101729.63;5048257;28;20110;-75
2022/01/03 10:36:50;;;;;;;2.92;1.23;;;;;;;21.75;48.09;101731.41;5044555;28;20072;-74
2022/01/03 10:39:19;;;;;;;2.65;1.50;;;;;;;21.74;47.61;101735.00;5041288;28;20680;-74
2022/01/03 10:41:50;;;;;;;2.30;1.08;;;;;;;21.72;47.61;101733.28;5039634;28;20087;-74
2022/01/03 10:44:33;;;;;;;2.25;1.15;;;;;;;21.61;47.47;101738.78;5059951;28;20060;-72
2022/01/03 10:47:01;;;;;;;4.28;1.80;;;;;;;21.51;47.92;101737.16;5042496;28;20041;-72
2022/01/03 10:49:29;;;;;;;7.30;3.78;;;;;;;21.60;48.28;101742.38;5036664;28;20394;-72
2022/01/03 10:52:16;;;;;;;5.32;1.85;;;;;;;21.68;47.75;101739.59;5047264;28;20072;-72
2022/01/03 10:54:45;;;;;;;4.65;2.20;;;;;;;21.55;47.91;101730.81;5033349;28;20691;-72
2022/01/03 10:57:16;;;;;;;4.78;2.13;;;;;;;21.50;48.13;101730.00;5044710;28;20408;-72
2022/01/03 10:59:43;;;;;;;3.17;1.60;;;;;;;21.36;47.68;101730.19;5031568;28;20045;-73
2022/01/03 11:02:13;;;;;;;4.35;1.42;;;;;;;21.30;47.87;101726.69;5054482;28;20132;-72
2022/01/03 11:04:49;;;;;;;3.55;1.38;;;;;;;21.27;47.95;101719.53;5032058;28;20041;-75
2022/01/03 11:13:07;;;;;;;2.47;1.73;;;;;;;21.37;47.83;101704.22;5052223;28;20057;-74
2022/01/03 11:15:35;;;;;;;4.93;1.70;;;;;;;21.40;48.02;101707.72;5032186;28;20045;-75
2022/01/03 11:18:12;;;;;;;7.63;2.72;;;;;;;21.53;48.04;101699.53;5041281;28;20037;-75
2022/01/03 11:20:41;;;;;;;4.43;2.28;;;;;;;21.40;48.29;101696.09;5045297;28;20521;-75
2022/01/03 11:23:09;;;;;;;2.85;1.90;;;;;;;21.34;48.66;101694.38;5036236;28;20040;-74
2022/01/03 11:25:37;;;;;;;7.53;3.10;;;;;;;21.36;48.84;101699.75;5028914;28;20132;-75
2022/01/03 11:28:08;;;;;;;7.40;2.22;;;;;;;21.39;48.81;101695.22;5038292;28;20119;-74
2022/01/03 11:30:36;;;;;;;4.65;3.03;;;;;;;21.36;48.89;101695.25;5034035;28;20041;-74
2022/01/03 11:33:08;;;;;;;4.55;2.63;;;;;;;21.30;48.39;101694.44;5031868;28;20064;-74
2022/01/03 11:35:36;;;;;;;5.63;2.42;;;;;;;21.15;48.34;101689.25;5028576;28;20632;-74
2022/01/03 11:38:08;;;;;;;5.18;1.55;;;;;;;21.13;48.24;101680.34;5037369;28;20122;-74
2022/01/03 11:40:37;;;;;;;4.63;2.22;;;;;;;21.03;48.88;101679.56;5039889;28;20045;-74
2022/01/03 11:43:08;;;;;;;4.95;2.67;;;;;;;21.06;49.44;101676.84;5028596;28;20116;-72
2022/01/03 11:45:37;;;;;;;3.60;1.92;;;;;;;21.12;49.15;101679.44;5041817;28;20052;-71
2022/01/03 11:48:07;;;;;;;4.80;2.03;;;;;;;21.15;48.93;101679.38;5044342;28;20049;-72
2022/01/03 11:50:36;;;;;;;4.30;1.70;;;;;;;21.05;48.36;101681.31;5045522;28;20595;-73